Akaroa II — 2DWJ4 — position and weather

sailwx.info

Track history (hours):
 
Tides and Currents Weather Stations Pressure Air Temp Water Temp Dewpoint Dewpoint Depression Visibility Wind Speed Wind Dir Waves Ship Positions

Akaroa II

Last reported at 2017-Sep-11 12:10 UTC. Time now 2017-Sep-23 18:33 UTC.
Position N 56°27' W 005°26'.
Warning: this ship's position is 12 days out of date.

Length 20 m.

Type: Sailing vessel. MMSI: 235082545.

Date/timePositionNaut miles runAvg speedWind from/ knotsBaromVisibWave heightAir tempDewpointWater temp
2017-Sep-11 12:10N 56°27' W 005°26'0 0.3
2017-Sep-11 12:00N 56°27' W 005°26'0 0.1
2017-Sep-11 11:29N 56°27' W 005°26'0 0.0
2017-Sep-11 10:56N 56°27' W 005°26'9 0.2
2017-Sep-09 11:28N 56°23' W 005°41'3 6.7
2017-Sep-09 10:58N 56°25' W 005°36'3 5.8
2017-Sep-09 10:30N 56°27' W 005°32'1 1.5
2017-Sep-09 10:00N 56°26' W 005°31'2 3.9
2017-Sep-09 09:30N 56°27' W 005°28'1 2.1
2017-Sep-09 08:55N 56°27' W 005°26'  
Track history (hours):
 
Tides and Currents Weather Stations Pressure Air Temp Water Temp Dewpoint Dewpoint Depression Visibility Wind Speed Wind Dir Waves Ship Positions

Akaroa II

Last reported at 2017-Sep-11 12:10 UTC. Time now 2017-Sep-23 18:33 UTC.
Position N 56°27' W 005°26'.
Warning: this ship's position is 12 days out of date.

Length 20 m.

Type: Sailing vessel. MMSI: 235082545.

Date/timePositionNaut miles runAvg speedWind from/ knotsBaromVisibWave heightAir tempDewpointWater temp
2017-Sep-11 12:10N 56°27' W 005°26'0 0.3
2017-Sep-11 12:00N 56°27' W 005°26'0 0.1
2017-Sep-11 11:29N 56°27' W 005°26'0 0.0
2017-Sep-11 10:56N 56°27' W 005°26'9 0.2
2017-Sep-09 11:28N 56°23' W 005°41'3 6.7
2017-Sep-09 10:58N 56°25' W 005°36'3 5.8
2017-Sep-09 10:30N 56°27' W 005°32'1 1.5
2017-Sep-09 10:00N 56°26' W 005°31'2 3.9
2017-Sep-09 09:30N 56°27' W 005°28'1 2.1
2017-Sep-09 08:55N 56°27' W 005°26'  

Dump ship's entire track history